Murphy, NC (28906)

2:38 PM EDT on August 29, 2016 (GMT -0400)
NOTTELY RIVER VALLEY VINEYARDS | | Change Station

Elev 1720 ft 34.99 °N, 84.12 °W | Updated 22 seconds ago

Clear
Clear
86.8 °F
Feels Like 87 °F
N
2.0
Wind Variable Wind from NW
Gusts 7.0 mph

Today
High -- | Low -- °F
--% Chance of Precip.
Yesterday
High -- | Low -- °F
Precip. -- in
Pressure 30.19 in
Visibility 10.0 miles
Clouds Clear
Heat Index 87 °F
Dew Point 62 °F
Humidity 44%
Rainfall in
Snow Depth Not available.
7:07 AM 8:06 PM
Waning Crescent, 7% visible
METAR KRHP 291820Z AUTO 00000KT 10SM CLR 30/18 A3019 RMK AO2 T02960176
Pressure 30.19 in
Visibility 10.0 miles
Clouds Clear
Heat Index 87 °F
Dew Point 62 °F
Humidity 44%
Rainfall in
Snow Depth Not available.
7:07 AM 8:06 PM
Waning Crescent, 7% visible
METAR KRHP 291820Z AUTO 00000KT 10SM CLR 30/18 A3019 RMK AO2 T02960176
Tropical Depression Nine was centered about 170 miles west-southwest of Key West, Florida, as of late Monday morning. The depression may struggle a bit in the southern Gulf of Mexico before finally making a Gulf Coast landfall later this week with soaking rain and gusty winds.

This latest system was designated a tropical depression Sunday after a Hurricane Hunter reconnaissance mission finally found a sufficiently organized low-pressure center with collocated shower and thunderstorm activity.

10-Day Weather Forecast

Almanac

Astronomy

Aug. 29, 2016 Rise Set
Actual Time
Civil Twilight
Nautical Twilight
Astronomical Twilight
Moon
Length of Visible Light
Length of Day
Tomorrow will be .
, % of the Moon is Illuminated

Today's Extremes

State Highs State Lows

Community

WunderPhotos

Upload Photos

1,935,685 photos uploaded!

WunderBlog® & News

Nearby

Air Quality

  Air Quality AQ Index Pollutant
Not available.

Snow Depth

Station Depth Elevation

Earthquake Activity

City Distance Mag. Time & Date
Minimum magnitude displayed is 2.5.

Coastal Water Temperatures

Place Temperature

Stations

Nearby Weather Stations

Station Location Temp. Windchill Dew Point Humidity Wind Precip. Elev Updated Type
                   

Watches & Warnings

There are currently no watches in effect.